createdAt,value
2022-11-01T00:02:12.779Z,23.80
2022-11-01T00:04:40.963Z,25.10
2022-11-01T00:07:08.677Z,25.70
2022-11-01T00:09:36.467Z,26.50
2022-11-01T00:12:05.153Z,29.40
2022-11-01T00:14:33.121Z,26.10
2022-11-01T00:17:00.987Z,28.90
2022-11-01T00:19:28.849Z,24.80
2022-11-01T00:21:56.743Z,24.90
2022-11-01T00:24:25.347Z,24.90
2022-11-01T00:26:53.172Z,26.50
2022-11-01T00:29:21.005Z,26.20
2022-11-01T00:31:48.955Z,26.60
2022-11-01T00:34:18.193Z,27.30
2022-11-01T00:36:46.063Z,27.30
2022-11-01T00:39:16.361Z,24.40
2022-11-01T00:41:44.068Z,25.60
2022-11-01T00:44:12.018Z,23.20
2022-11-01T00:46:39.685Z,25.80
2022-11-01T00:49:07.380Z,21.90
2022-11-01T00:51:35.409Z,23.90
2022-11-01T00:54:03.692Z,25.20
2022-11-01T00:56:31.547Z,25.80
2022-11-01T00:58:59.218Z,28.70
2022-11-01T01:01:27.080Z,25.70
2022-11-01T01:03:55.662Z,23.30
2022-11-01T01:06:23.579Z,22.40
2022-11-01T01:08:51.412Z,23.30
2022-11-01T01:11:19.082Z,24.10
2022-11-01T01:13:46.822Z,20.80
2022-11-01T01:16:14.697Z,21.60
2022-11-01T01:18:42.862Z,23.00
2022-11-01T01:21:11.066Z,21.40
2022-11-01T01:23:38.753Z,23.30
2022-11-01T01:26:08.904Z,20.80
2022-11-01T01:28:41.868Z,24.70
2022-11-01T01:31:14.186Z,28.00
2022-11-01T01:33:42.150Z,24.00
2022-11-01T01:36:11.033Z,23.90
2022-11-01T01:38:38.996Z,24.20
2022-11-01T01:41:33.234Z,22.20
2022-11-01T01:44:01.253Z,22.60
2022-11-01T01:46:29.020Z,20.90
2022-11-01T01:49:00.187Z,23.60
2022-11-01T01:51:29.134Z,21.80
2022-11-01T01:53:58.890Z,19.70
2022-11-01T01:56:32.548Z,21.00
2022-11-01T01:59:18.557Z,19.90
2022-11-01T02:01:46.297Z,20.20
2022-11-01T02:04:39.281Z,20.10
2022-11-01T02:07:08.704Z,22.30
2022-11-01T02:09:37.866Z,20.80
2022-11-01T02:12:05.655Z,20.40
2022-11-01T02:14:33.453Z,19.20
2022-11-01T02:17:28.381Z,19.90
2022-11-01T02:20:05.011Z,20.00
2022-11-01T02:23:03.909Z,18.70
2022-11-01T02:25:53.751Z,20.60
2022-11-01T02:28:38.819Z,19.80
2022-11-01T02:31:35.561Z,17.80
2022-11-01T02:34:16.741Z,17.80
2022-11-01T02:36:49.317Z,19.00
2022-11-01T02:39:23.410Z,20.70
2022-11-01T02:41:58.976Z,17.60
2022-11-01T02:44:31.633Z,18.70
2022-11-01T02:47:02.831Z,19.30
2022-11-01T02:49:34.656Z,17.80
2022-11-01T02:52:04.570Z,16.60
2022-11-01T02:54:42.662Z,18.80
2022-11-01T02:57:33.073Z,17.50
2022-11-01T03:00:16.588Z,16.30
2022-11-01T03:02:45.677Z,17.50
2022-11-01T03:05:25.369Z,16.90
2022-11-01T03:08:00.666Z,16.70
2022-11-01T03:10:42.478Z,17.00
2022-11-01T03:13:32.972Z,15.50
2022-11-01T03:16:31.040Z,16.60
2022-11-01T03:19:13.963Z,17.60
2022-11-01T03:21:50.846Z,17.80
2022-11-01T03:24:33.553Z,17.30
2022-11-01T03:27:08.181Z,24.20
2022-11-01T03:29:38.456Z,16.30
2022-11-01T03:32:08.418Z,15.90
2022-11-01T03:34:39.356Z,18.10
2022-11-01T03:37:12.137Z,17.00
2022-11-01T03:39:48.375Z,21.50
2022-11-01T03:42:20.332Z,21.00
2022-11-01T03:44:53.348Z,16.00
2022-11-01T03:47:21.319Z,17.60
2022-11-01T03:50:17.246Z,17.50
2022-11-01T03:52:45.726Z,18.40
2022-11-01T03:55:18.809Z,16.40
2022-11-01T03:57:49.852Z,18.50
2022-11-01T04:00:23.675Z,19.20
2022-11-01T04:02:53.243Z,18.10
2022-11-01T04:05:22.679Z,17.20
2022-11-01T04:07:51.966Z,16.20
2022-11-01T04:10:21.050Z,15.60
2022-11-01T04:12:50.828Z,15.70
2022-11-01T04:15:39.014Z,15.50
2022-11-01T04:21:19.292Z,14.10
2022-11-01T04:23:47.555Z,17.90
2022-11-01T04:26:21.986Z,18.50
2022-11-01T04:28:59.707Z,18.30
2022-11-01T04:31:34.105Z,15.50
2022-11-01T04:34:04.105Z,18.50
2022-11-01T04:36:32.509Z,16.90
2022-11-01T04:39:00.207Z,16.80
2022-11-01T04:41:30.513Z,18.10
2022-11-01T04:43:59.701Z,19.80
2022-11-01T04:46:32.156Z,16.20
2022-11-01T04:49:00.019Z,16.00
2022-11-01T04:51:28.176Z,14.80
2022-11-01T04:53:56.566Z,16.90
2022-11-01T04:56:24.539Z,18.50
2022-11-01T04:58:52.509Z,18.60
2022-11-01T05:01:20.214Z,18.40
2022-11-01T05:03:49.585Z,16.30
2022-11-01T05:06:17.969Z,16.90
2022-11-01T05:08:45.785Z,17.50
2022-11-01T05:11:13.681Z,16.90
2022-11-01T05:13:42.265Z,17.10
2022-11-01T05:16:25.219Z,16.20
2022-11-01T05:18:53.080Z,16.60
2022-11-01T05:21:20.949Z,13.40
2022-11-01T05:23:49.478Z,15.70
2022-11-01T05:26:17.652Z,15.90
2022-11-01T05:28:45.641Z,13.70
2022-11-01T05:31:13.457Z,16.30
2022-11-01T05:33:41.098Z,15.60
2022-11-01T05:36:08.933Z,15.80
2022-11-01T05:38:36.795Z,14.90
2022-11-01T05:41:04.808Z,18.00
2022-11-01T05:43:32.941Z,17.50
2022-11-01T05:46:04.806Z,16.40
2022-11-01T05:48:33.487Z,17.70
2022-11-01T05:51:01.157Z,14.20
2022-11-01T05:53:28.867Z,14.10
2022-11-01T05:55:57.185Z,17.80
2022-11-01T05:58:29.612Z,14.30
2022-11-01T06:01:05.666Z,15.70
2022-11-01T06:03:35.561Z,12.00
2022-11-01T06:06:04.008Z,12.20
2022-11-01T06:08:34.278Z,10.10
2022-11-01T06:11:04.120Z,14.20
2022-11-01T06:13:33.143Z,13.10
2022-11-01T06:16:06.114Z,11.30
2022-11-01T06:18:34.303Z,13.40
2022-11-01T06:21:02.154Z,13.00
2022-11-01T06:23:29.822Z,12.60
2022-11-01T06:26:05.326Z,11.30
2022-11-01T06:28:33.548Z,13.60
2022-11-01T06:31:02.883Z,11.50
2022-11-01T06:33:32.159Z,10.90
2022-11-01T06:36:02.286Z,13.10
2022-11-01T06:38:30.232Z,13.40
2022-11-01T06:40:58.095Z,12.70
2022-11-01T06:43:25.971Z,14.40
2022-11-01T06:45:53.757Z,10.30
2022-11-01T06:48:21.847Z,10.10
2022-11-01T06:50:49.636Z,10.80
2022-11-01T06:53:17.334Z,11.70
2022-11-01T06:55:45.370Z,13.00
2022-11-01T06:58:13.064Z,12.10
2022-11-01T07:00:40.729Z,10.50
2022-11-01T07:03:12.177Z,10.20
2022-11-01T07:05:40.546Z,13.60
2022-11-01T07:08:13.084Z,13.10
2022-11-01T07:10:43.287Z,12.20
2022-11-01T07:13:13.144Z,13.80
2022-11-01T07:15:41.540Z,10.00
2022-11-01T07:18:09.839Z,11.20
2022-11-01T07:20:42.304Z,13.10
2022-11-01T07:23:14.463Z,15.50
2022-11-01T07:25:42.936Z,13.00
2022-11-01T07:28:11.152Z,13.50
2022-11-01T07:30:39.626Z,15.70
2022-11-01T07:33:07.409Z,13.60
2022-11-01T07:35:36.765Z,14.70
2022-11-01T07:38:09.699Z,11.90
2022-11-01T07:40:40.659Z,11.40
2022-11-01T07:43:09.053Z,11.00
2022-11-01T07:45:37.663Z,12.50
2022-11-01T07:48:10.670Z,11.30
2022-11-01T07:50:40.606Z,16.20
2022-11-01T07:53:12.137Z,11.50
2022-11-01T07:55:40.964Z,13.40
2022-11-01T07:58:10.404Z,10.10
2022-11-01T08:00:39.914Z,16.30
2022-11-01T08:03:19.480Z,15.50
2022-11-01T08:05:48.160Z,10.10
2022-11-01T08:08:16.844Z,10.10
2022-11-01T08:10:45.276Z,11.40
2022-11-01T08:13:22.052Z,10.30
2022-11-01T08:15:52.380Z,10.70
2022-11-01T08:18:22.739Z,14.00
2022-11-01T08:20:52.512Z,14.20
2022-11-01T08:23:21.050Z,14.70
2022-11-01T08:25:49.290Z,12.50
2022-11-01T08:28:19.594Z,10.50
2022-11-01T08:30:50.715Z,10.30
2022-11-01T08:33:18.433Z,12.00
2022-11-01T08:35:50.407Z,13.70
2022-11-01T08:38:19.535Z,10.30
2022-11-01T08:40:48.201Z,10.00
2022-11-01T08:43:16.952Z,8.30
2022-11-01T08:45:45.995Z,17.30
2022-11-01T08:48:14.358Z,9.70
2022-11-01T08:50:42.154Z,8.90
2022-11-01T08:53:12.960Z,12.00
2022-11-01T08:55:42.007Z,11.20
2022-11-01T08:58:10.531Z,8.70
2022-11-01T09:00:38.310Z,9.80
2022-11-01T09:03:06.215Z,11.40
2022-11-01T09:05:34.787Z,9.40
2022-11-01T09:08:03.097Z,7.20
2022-11-01T09:10:31.545Z,8.70
2022-11-01T09:13:01.041Z,8.30
2022-11-01T09:15:29.815Z,6.00
2022-11-01T09:17:57.457Z,10.40
2022-11-01T09:20:26.735Z,9.20
2022-11-01T09:22:54.699Z,11.70
2022-11-01T09:25:22.895Z,11.00
2022-11-01T09:27:50.645Z,10.90
2022-11-01T09:30:18.582Z,8.30
2022-11-01T09:32:46.707Z,13.00
2022-11-01T09:35:14.533Z,8.30
2022-11-01T09:37:42.998Z,12.10
2022-11-01T09:40:14.355Z,7.00
2022-11-01T09:42:45.384Z,7.30
2022-11-01T09:45:20.270Z,10.70
2022-11-01T09:47:52.675Z,11.50
2022-11-01T09:50:54.335Z,12.10
2022-11-01T09:53:28.364Z,11.00
2022-11-01T09:56:10.648Z,8.70
2022-11-01T09:59:16.402Z,7.90
2022-11-01T10:01:57.016Z,8.60
2022-11-01T10:04:50.740Z,12.10
2022-11-01T10:07:45.724Z,14.30
2022-11-01T10:10:51.975Z,11.70
2022-11-01T10:13:41.587Z,10.10
2022-11-01T10:16:22.565Z,9.60
2022-11-01T10:19:02.849Z,10.50
2022-11-01T10:21:43.171Z,7.40
2022-11-01T10:24:44.145Z,13.90
2022-11-01T10:27:11.757Z,8.90
2022-11-01T10:30:03.995Z,14.20
2022-11-01T10:32:58.502Z,10.10
2022-11-01T10:35:34.460Z,12.00
2022-11-01T10:38:41.915Z,7.40
2022-11-01T10:41:36.564Z,10.80
2022-11-01T10:44:15.341Z,12.90
2022-11-01T10:46:49.483Z,9.80
2022-11-01T10:49:24.599Z,16.80
2022-11-01T10:51:59.226Z,11.90
2022-11-01T10:54:30.634Z,14.30
2022-11-01T10:57:08.654Z,12.70
2022-11-01T10:59:41.175Z,14.20
2022-11-01T11:02:29.960Z,11.90
2022-11-01T11:04:58.945Z,13.20
2022-11-01T11:07:32.186Z,11.70
2022-11-01T11:12:37.126Z,10.20
2022-11-01T11:15:18.355Z,13.50
2022-11-01T11:17:51.246Z,13.80
2022-11-01T11:20:26.858Z,13.60
2022-11-01T11:22:54.618Z,13.50
2022-11-01T11:25:33.002Z,11.90
2022-11-01T11:28:02.869Z,12.10
2022-11-01T11:30:35.875Z,16.80
2022-11-01T11:33:04.733Z,12.30
2022-11-01T11:35:36.575Z,17.80
2022-11-01T11:38:07.298Z,11.90
2022-11-01T11:40:38.958Z,11.90
2022-11-01T11:43:30.350Z,12.40
2022-11-01T11:46:21.115Z,17.10
2022-11-01T11:48:56.854Z,13.00
2022-11-01T11:51:32.813Z,14.60
2022-11-01T11:54:22.736Z,18.00
2022-11-01T11:56:54.698Z,13.80
2022-11-01T11:59:28.520Z,16.40
2022-11-01T12:02:15.016Z,15.20
2022-11-01T12:04:56.651Z,15.10
2022-11-01T12:07:45.697Z,16.10
2022-11-01T12:10:47.791Z,17.50
2022-11-01T12:13:25.349Z,17.60
2022-11-01T12:16:08.629Z,15.80
2022-11-01T12:18:49.985Z,16.70
2022-11-01T12:21:24.147Z,14.50
2022-11-01T12:24:05.138Z,17.20
2022-11-01T12:26:36.359Z,17.40
2022-11-01T12:29:25.197Z,15.10
2022-11-01T12:31:55.657Z,14.20
2022-11-01T12:34:31.180Z,16.40
2022-11-01T12:37:03.235Z,18.10
2022-11-01T12:39:43.183Z,16.20
2022-11-01T12:42:18.794Z,16.30
2022-11-01T12:44:52.929Z,15.40
2022-11-01T12:47:46.654Z,17.50
2022-11-01T12:50:32.816Z,18.40
2022-11-01T12:53:18.353Z,16.10
2022-11-01T12:55:47.297Z,17.30
2022-11-01T12:58:19.314Z,19.50
2022-11-01T13:01:08.934Z,19.20
2022-11-01T13:03:54.496Z,17.70
2022-11-01T13:06:44.046Z,17.50
2022-11-01T13:09:36.781Z,20.30
2022-11-01T13:12:37.084Z,17.90
2022-11-01T13:15:16.540Z,18.00
2022-11-01T13:18:18.562Z,17.70
2022-11-01T13:20:56.775Z,17.40
2022-11-01T13:23:44.308Z,17.60
2022-11-01T13:26:36.882Z,17.60
2022-11-01T13:29:35.530Z,19.20
2022-11-01T13:32:24.980Z,17.10
2022-11-01T13:35:13.661Z,17.30
2022-11-01T13:38:02.468Z,16.30
2022-11-01T13:40:50.503Z,17.50
2022-11-01T13:43:25.097Z,18.20
2022-11-01T13:46:14.525Z,20.50
2022-11-01T13:49:08.293Z,21.30
2022-11-01T13:51:56.840Z,18.50
2022-11-01T13:54:39.892Z,19.60
2022-11-01T13:57:11.537Z,21.90
2022-11-01T13:59:45.585Z,18.50
2022-11-01T14:02:22.832Z,20.50
2022-11-01T14:05:13.775Z,17.90
2022-11-01T14:07:45.562Z,19.70
2022-11-01T14:10:21.056Z,17.70
2022-11-01T14:13:00.090Z,17.20
2022-11-01T14:15:30.495Z,19.30
2022-11-01T14:18:08.415Z,19.80
2022-11-01T14:20:48.302Z,21.00
2022-11-01T14:23:29.592Z,18.50
2022-11-01T14:26:18.564Z,20.30
2022-11-01T14:28:52.649Z,18.60
2022-11-01T14:31:25.333Z,18.70
2022-11-01T14:33:59.886Z,20.90
2022-11-01T14:36:39.644Z,21.30
2022-11-01T14:39:23.084Z,19.80
2022-11-01T14:41:56.390Z,21.20
2022-11-01T14:44:50.601Z,20.80
2022-11-01T14:47:37.868Z,22.70
2022-11-01T14:50:27.068Z,21.20
2022-11-01T14:53:11.382Z,20.70
2022-11-01T14:55:39.546Z,23.00
2022-11-01T14:58:21.821Z,24.10
2022-11-01T15:00:55.441Z,23.20
2022-11-01T15:03:25.457Z,21.10
2022-11-01T15:05:54.372Z,22.70
2022-11-01T15:08:40.732Z,23.60
2022-11-01T15:11:11.013Z,22.50
2022-11-01T15:13:43.946Z,22.70
2022-11-01T15:16:28.069Z,24.20
2022-11-01T15:19:06.618Z,22.70
2022-11-01T15:21:35.331Z,23.90
2022-11-01T15:24:05.873Z,24.20
2022-11-01T15:26:34.504Z,24.60
2022-11-01T15:29:06.759Z,23.90
2022-11-01T15:31:36.328Z,23.10
2022-11-01T15:34:25.823Z,25.50
2022-11-01T15:36:56.273Z,24.20
2022-11-01T15:39:29.087Z,26.20
2022-11-01T15:41:58.202Z,27.90
2022-11-01T15:44:32.990Z,26.50
2022-11-01T15:47:07.918Z,24.40
2022-11-01T15:49:59.003Z,26.30
2022-11-01T15:52:48.188Z,25.70
2022-11-01T15:55:30.667Z,26.80
2022-11-01T15:58:07.978Z,23.60
2022-11-01T16:00:42.401Z,26.70
2022-11-01T16:03:27.493Z,24.60
2022-11-01T16:06:03.059Z,26.40
2022-11-01T16:08:39.529Z,29.50
2022-11-01T16:11:09.958Z,27.10
2022-11-01T16:13:38.238Z,24.30
2022-11-01T16:16:12.762Z,24.80
2022-11-01T16:18:45.654Z,28.70
2022-11-01T16:21:19.554Z,28.70
2022-11-01T16:23:56.277Z,26.10
2022-11-01T16:26:27.765Z,23.00
2022-11-01T16:28:56.555Z,26.90
2022-11-01T16:31:33.646Z,27.40
2022-11-01T16:34:01.551Z,28.10
2022-11-01T16:36:37.266Z,26.10
2022-11-01T16:39:33.239Z,27.30
2022-11-01T16:42:01.356Z,27.50
2022-11-01T16:44:31.378Z,29.50
2022-11-01T16:47:02.107Z,28.70
2022-11-01T16:49:34.569Z,31.30
2022-11-01T16:52:06.021Z,27.30
2022-11-01T16:54:33.929Z,30.50
2022-11-01T16:57:05.375Z,28.20
2022-11-01T16:59:43.332Z,28.30
2022-11-01T17:02:18.173Z,27.00
2022-11-01T17:04:50.809Z,33.30
2022-11-01T17:07:18.744Z,29.70
2022-11-01T17:09:49.760Z,30.80
2022-11-01T17:12:17.694Z,32.20
2022-11-01T17:14:46.692Z,27.90
2022-11-01T17:17:20.069Z,28.40
2022-11-01T17:19:56.068Z,30.80
2022-11-01T17:22:35.140Z,29.20
2022-11-01T17:25:06.615Z,31.90
2022-11-01T17:27:34.536Z,30.00
2022-11-01T17:30:04.536Z,31.30
2022-11-01T17:32:35.321Z,29.00
2022-11-01T17:35:06.720Z,31.90
2022-11-01T17:37:39.012Z,32.50
2022-11-01T17:40:22.852Z,30.20
2022-11-01T17:42:54.502Z,30.90
2022-11-01T17:45:45.392Z,33.60
2022-11-01T17:48:13.841Z,32.00
2022-11-01T17:50:43.809Z,32.00
2022-11-01T17:53:16.223Z,29.20
2022-11-01T17:55:45.727Z,29.30
2022-11-01T17:58:16.401Z,31.30
2022-11-01T18:00:45.361Z,31.80
2022-11-01T18:03:15.538Z,29.00
2022-11-01T18:05:43.430Z,30.50
2022-11-01T18:08:18.603Z,31.70
2022-11-01T18:11:12.547Z,31.20
2022-11-01T18:13:52.947Z,32.30
2022-11-01T18:16:28.355Z,34.00
2022-11-01T18:19:28.915Z,33.50
2022-11-01T18:22:12.874Z,31.60
2022-11-01T18:24:55.069Z,33.70
2022-11-01T18:27:39.634Z,33.10
2022-11-01T18:30:21.734Z,36.90
2022-11-01T18:33:25.171Z,31.20
2022-11-01T18:36:13.641Z,31.70
2022-11-01T18:39:04.086Z,29.70
2022-11-01T18:41:32.082Z,30.30
2022-11-01T18:44:04.412Z,30.00
2022-11-01T18:46:43.127Z,31.00
2022-11-01T18:49:13.972Z,32.50
2022-11-01T18:51:42.990Z,32.70
2022-11-01T18:54:14.369Z,31.10
2022-11-01T18:56:49.519Z,34.80
2022-11-01T18:59:33.109Z,34.00
2022-11-01T19:02:22.951Z,33.40
2022-11-01T19:05:12.500Z,33.60
2022-11-01T19:08:05.312Z,28.70
2022-11-01T19:10:35.394Z,32.30
2022-11-01T19:13:12.846Z,33.70
2022-11-01T19:15:41.975Z,32.50
2022-11-01T19:18:19.149Z,33.60
2022-11-01T19:20:53.145Z,29.70
2022-11-01T19:23:45.993Z,31.40
2022-11-01T19:26:23.360Z,30.70
2022-11-01T19:28:52.796Z,31.90
2022-11-01T19:31:34.314Z,29.00
2022-11-01T19:34:25.858Z,31.30
2022-11-01T19:36:56.058Z,28.70
2022-11-01T19:39:29.806Z,30.50
2022-11-01T19:42:29.723Z,31.90
2022-11-01T19:45:14.932Z,29.00
2022-11-01T19:47:50.473Z,33.70
2022-11-01T19:50:29.322Z,29.10
2022-11-01T19:53:00.705Z,30.00
2022-11-01T19:55:49.247Z,32.80
2022-11-01T19:58:29.342Z,30.70
2022-11-01T20:01:07.513Z,32.80
2022-11-01T20:04:02.846Z,35.50
2022-11-01T20:06:36.260Z,30.60
2022-11-01T20:09:37.027Z,30.60
2022-11-01T20:12:06.485Z,31.80
2022-11-01T20:14:37.396Z,28.60
2022-11-01T20:17:05.191Z,31.70
2022-11-01T20:19:34.591Z,30.50
2022-11-01T20:22:02.756Z,29.70
2022-11-01T20:24:31.318Z,33.50
2022-11-01T20:27:01.271Z,28.40
2022-11-01T20:29:29.409Z,28.70
2022-11-01T20:31:57.184Z,30.40
2022-11-01T20:34:30.368Z,28.20
2022-11-01T20:37:22.659Z,30.50
2022-11-01T20:39:45.820Z,32.20
2022-11-01T20:42:13.680Z,30.50
2022-11-01T20:44:41.676Z,31.50
2022-11-01T20:47:09.592Z,31.90
2022-11-01T20:49:37.508Z,28.60
2022-11-01T20:52:33.848Z,31.30
2022-11-01T20:54:57.716Z,29.50
2022-11-01T20:57:28.424Z,29.90
2022-11-01T20:59:59.667Z,28.80
2022-11-01T21:02:31.194Z,28.60
2022-11-01T21:05:18.351Z,27.10
2022-11-01T21:07:48.121Z,27.00
2022-11-01T21:10:40.231Z,32.20
2022-11-01T21:13:38.121Z,27.40
2022-11-01T21:16:25.077Z,29.20
2022-11-01T21:19:00.729Z,27.70
2022-11-01T21:21:46.288Z,25.00
2022-11-01T21:24:31.408Z,29.70
2022-11-01T21:27:11.487Z,27.60
2022-11-01T21:29:49.542Z,25.70
2022-11-01T21:32:41.009Z,27.30
2022-11-01T21:35:41.078Z,26.20
2022-11-01T21:38:35.056Z,27.10
2022-11-01T21:41:13.518Z,27.10
2022-11-01T21:43:44.987Z,25.60
2022-11-01T21:46:20.350Z,25.80
2022-11-01T21:48:54.884Z,30.10
2022-11-01T21:51:22.865Z,24.80
2022-11-01T21:53:53.865Z,26.60
2022-11-01T21:56:22.148Z,26.20
2022-11-01T21:58:51.685Z,24.20
2022-11-01T22:01:19.485Z,27.10
2022-11-01T22:03:54.065Z,24.50
2022-11-01T22:06:21.993Z,26.40
2022-11-01T22:08:54.593Z,27.30
2022-11-01T22:11:23.824Z,31.90
2022-11-01T22:13:56.655Z,31.50
2022-11-01T22:16:25.865Z,27.40
2022-11-01T22:18:53.866Z,25.90
2022-11-01T22:21:24.998Z,28.40
2022-11-01T22:23:56.056Z,29.20
2022-11-01T22:26:27.658Z,27.70
2022-11-01T22:28:58.631Z,30.00
2022-11-01T22:31:28.857Z,25.80
2022-11-01T22:33:57.816Z,27.60
2022-11-01T22:36:31.080Z,26.70
2022-11-01T22:39:03.050Z,28.30
2022-11-01T22:41:39.977Z,27.50
2022-11-01T22:44:16.542Z,25.50
2022-11-01T22:46:47.325Z,25.40
2022-11-01T22:49:29.309Z,28.10
2022-11-01T22:52:07.375Z,25.70
2022-11-01T22:54:55.045Z,25.60
2022-11-01T22:57:27.580Z,25.20
2022-11-01T23:00:23.883Z,26.60
2022-11-01T23:03:04.202Z,24.90
2022-11-01T23:05:39.437Z,26.50
2022-11-01T23:08:22.602Z,27.00
2022-11-01T23:10:55.132Z,21.00
2022-11-01T23:13:45.104Z,26.50
2022-11-01T23:16:26.811Z,28.80
2022-11-01T23:18:59.836Z,23.90
2022-11-01T23:21:28.088Z,27.90
2022-11-01T23:23:57.827Z,25.20
2022-11-01T23:26:25.687Z,25.60
2022-11-01T23:28:58.511Z,24.90
2022-11-01T23:31:29.406Z,26.90
2022-11-01T23:34:00.132Z,29.60
2022-11-01T23:36:38.702Z,27.00
2022-11-01T23:39:13.801Z,33.80
2022-11-01T23:41:50.928Z,25.60
2022-11-01T23:44:41.011Z,25.80
2022-11-01T23:47:24.788Z,25.40
2022-11-01T23:52:46.372Z,25.80
2022-11-01T23:55:25.058Z,26.00
2022-11-01T23:58:02.163Z,29.20
